sensor_id;sensor_type;location;lat;lon;timestamp;P1;durP1;ratioP1;P2;durP2;ratioP2
36593;SDS011;22603;47.900;8.146;2023-06-04T00:02:33;10.63;;;4.63;;
36593;SDS011;22603;47.900;8.146;2023-06-04T00:05:36;10.80;;;5.03;;
36593;SDS011;22603;47.900;8.146;2023-06-04T00:08:40;13.47;;;5.80;;
36593;SDS011;22603;47.900;8.146;2023-06-04T00:11:38;15.07;;;5.63;;
36593;SDS011;22603;47.900;8.146;2023-06-04T00:14:45;13.67;;;5.73;;
36593;SDS011;22603;47.900;8.146;2023-06-04T00:17:56;12.77;;;5.03;;
36593;SDS011;22603;47.900;8.146;2023-06-04T00:21:06;12.33;;;5.53;;
36593;SDS011;22603;47.900;8.146;2023-06-04T00:24:08;12.20;;;5.50;;
36593;SDS011;22603;47.900;8.146;2023-06-04T00:27:15;10.73;;;5.20;;
36593;SDS011;22603;47.900;8.146;2023-06-04T00:30:27;10.57;;;5.40;;
36593;SDS011;22603;47.900;8.146;2023-06-04T00:33:40;13.47;;;5.20;;
36593;SDS011;22603;47.900;8.146;2023-06-04T00:36:41;14.90;;;6.17;;
36593;SDS011;22603;47.900;8.146;2023-06-04T00:39:50;11.77;;;5.37;;
36593;SDS011;22603;47.900;8.146;2023-06-04T00:42:53;10.50;;;5.17;;
36593;SDS011;22603;47.900;8.146;2023-06-04T00:46:00;13.13;;;5.90;;
36593;SDS011;22603;47.900;8.146;2023-06-04T00:49:12;12.97;;;5.60;;
36593;SDS011;22603;47.900;8.146;2023-06-04T00:52:15;12.80;;;5.50;;
36593;SDS011;22603;47.900;8.146;2023-06-04T00:55:22;13.67;;;5.30;;
36593;SDS011;22603;47.900;8.146;2023-06-04T00:58:25;13.47;;;5.57;;
36593;SDS011;22603;47.900;8.146;2023-06-04T01:01:42;10.63;;;5.27;;
36593;SDS011;22603;47.900;8.146;2023-06-04T01:04:53;12.37;;;5.17;;
36593;SDS011;22603;47.900;8.146;2023-06-04T01:07:58;12.97;;;5.63;;
36593;SDS011;22603;47.900;8.146;2023-06-04T01:11:12;11.40;;;5.33;;
36593;SDS011;22603;47.900;8.146;2023-06-04T01:14:22;13.20;;;5.33;;
36593;SDS011;22603;47.900;8.146;2023-06-04T01:17:33;13.93;;;5.47;;
36593;SDS011;22603;47.900;8.146;2023-06-04T01:20:43;11.40;;;4.67;;
36593;SDS011;22603;47.900;8.146;2023-06-04T01:23:42;13.03;;;5.83;;
36593;SDS011;22603;47.900;8.146;2023-06-04T01:26:53;12.30;;;5.90;;
36593;SDS011;22603;47.900;8.146;2023-06-04T01:30:18;10.97;;;5.40;;
36593;SDS011;22603;47.900;8.146;2023-06-04T01:33:39;13.60;;;5.60;;
36593;SDS011;22603;47.900;8.146;2023-06-04T01:36:41;15.30;;;6.10;;
36593;SDS011;22603;47.900;8.146;2023-06-04T01:39:44;13.80;;;5.60;;
36593;SDS011;22603;47.900;8.146;2023-06-04T01:42:58;12.13;;;5.70;;
36593;SDS011;22603;47.900;8.146;2023-06-04T01:46:11;11.97;;;5.53;;
36593;SDS011;22603;47.900;8.146;2023-06-04T01:49:12;11.03;;;5.33;;
36593;SDS011;22603;47.900;8.146;2023-06-04T01:52:22;17.10;;;5.67;;
36593;SDS011;22603;47.900;8.146;2023-06-04T01:55:29;12.87;;;5.73;;
36593;SDS011;22603;47.900;8.146;2023-06-04T01:58:45;11.43;;;5.03;;
36593;SDS011;22603;47.900;8.146;2023-06-04T02:01:49;11.93;;;5.70;;
36593;SDS011;22603;47.900;8.146;2023-06-04T02:05:17;12.00;;;5.17;;
36593;SDS011;22603;47.900;8.146;2023-06-04T02:08:27;12.27;;;5.23;;
36593;SDS011;22603;47.900;8.146;2023-06-04T02:11:38;10.70;;;4.60;;
36593;SDS011;22603;47.900;8.146;2023-06-04T02:14:52;16.63;;;5.03;;
36593;SDS011;22603;47.900;8.146;2023-06-04T02:17:48;12.90;;;5.50;;
36593;SDS011;22603;47.900;8.146;2023-06-04T02:21:01;11.30;;;4.73;;
36593;SDS011;22603;47.900;8.146;2023-06-04T02:24:04;12.67;;;5.40;;
36593;SDS011;22603;47.900;8.146;2023-06-04T02:27:20;11.73;;;5.20;;
36593;SDS011;22603;47.900;8.146;2023-06-04T02:30:24;11.37;;;4.93;;
36593;SDS011;22603;47.900;8.146;2023-06-04T02:33:27;12.93;;;5.27;;
36593;SDS011;22603;47.900;8.146;2023-06-04T02:36:29;12.67;;;5.20;;
36593;SDS011;22603;47.900;8.146;2023-06-04T02:39:40;10.80;;;4.77;;
36593;SDS011;22603;47.900;8.146;2023-06-04T02:42:37;14.00;;;5.57;;
36593;SDS011;22603;47.900;8.146;2023-06-04T02:45:37;14.33;;;5.40;;
36593;SDS011;22603;47.900;8.146;2023-06-04T02:48:41;11.73;;;5.43;;
36593;SDS011;22603;47.900;8.146;2023-06-04T02:51:46;11.77;;;4.90;;
36593;SDS011;22603;47.900;8.146;2023-06-04T02:54:52;11.40;;;5.27;;
36593;SDS011;22603;47.900;8.146;2023-06-04T02:58:01;12.17;;;5.80;;
36593;SDS011;22603;47.900;8.146;2023-06-04T03:01:02;12.60;;;5.43;;
36593;SDS011;22603;47.900;8.146;2023-06-04T03:04:03;11.30;;;5.17;;
36593;SDS011;22603;47.900;8.146;2023-06-04T03:07:10;11.23;;;5.00;;
36593;SDS011;22603;47.900;8.146;2023-06-04T03:10:16;11.17;;;4.77;;
36593;SDS011;22603;47.900;8.146;2023-06-04T03:13:20;17.37;;;5.53;;
36593;SDS011;22603;47.900;8.146;2023-06-04T03:16:22;9.97;;;4.63;;
36593;SDS011;22603;47.900;8.146;2023-06-04T03:19:33;10.70;;;4.50;;
36593;SDS011;22603;47.900;8.146;2023-06-04T03:22:40;12.90;;;4.97;;
36593;SDS011;22603;47.900;8.146;2023-06-04T03:25:51;12.07;;;5.50;;
36593;SDS011;22603;47.900;8.146;2023-06-04T03:28:59;11.90;;;5.17;;
36593;SDS011;22603;47.900;8.146;2023-06-04T03:32:04;16.03;;;5.27;;
36593;SDS011;22603;47.900;8.146;2023-06-04T03:35:08;13.53;;;4.80;;
36593;SDS011;22603;47.900;8.146;2023-06-04T03:38:15;10.20;;;4.47;;
36593;SDS011;22603;47.900;8.146;2023-06-04T03:41:29;11.63;;;4.73;;
36593;SDS011;22603;47.900;8.146;2023-06-04T03:44:27;13.13;;;5.93;;
36593;SDS011;22603;47.900;8.146;2023-06-04T03:47:33;11.73;;;5.30;;
36593;SDS011;22603;47.900;8.146;2023-06-04T03:50:40;12.13;;;5.20;;
36593;SDS011;22603;47.900;8.146;2023-06-04T03:53:47;12.77;;;5.30;;
36593;SDS011;22603;47.900;8.146;2023-06-04T03:56:54;12.67;;;5.33;;
36593;SDS011;22603;47.900;8.146;2023-06-04T03:59:55;10.17;;;5.07;;
36593;SDS011;22603;47.900;8.146;2023-06-04T04:02:59;13.23;;;5.70;;
36593;SDS011;22603;47.900;8.146;2023-06-04T04:06:24;12.97;;;5.40;;
36593;SDS011;22603;47.900;8.146;2023-06-04T04:09:31;11.07;;;5.47;;
36593;SDS011;22603;47.900;8.146;2023-06-04T04:12:33;11.47;;;5.07;;
36593;SDS011;22603;47.900;8.146;2023-06-04T04:15:37;11.30;;;5.30;;
36593;SDS011;22603;47.900;8.146;2023-06-04T04:18:37;11.47;;;5.27;;
36593;SDS011;22603;47.900;8.146;2023-06-04T04:21:33;11.23;;;5.00;;
36593;SDS011;22603;47.900;8.146;2023-06-04T04:24:50;10.13;;;4.60;;
36593;SDS011;22603;47.900;8.146;2023-06-04T04:27:51;10.70;;;4.83;;
36593;SDS011;22603;47.900;8.146;2023-06-04T04:31:01;13.20;;;5.57;;
36593;SDS011;22603;47.900;8.146;2023-06-04T04:33:57;15.70;;;5.20;;
36593;SDS011;22603;47.900;8.146;2023-06-04T04:37:00;10.13;;;4.33;;
36593;SDS011;22603;47.900;8.146;2023-06-04T04:40:01;13.97;;;5.97;;
36593;SDS011;22603;47.900;8.146;2023-06-04T04:43:04;11.27;;;4.93;;
36593;SDS011;22603;47.900;8.146;2023-06-04T04:46:07;10.20;;;5.17;;
36593;SDS011;22603;47.900;8.146;2023-06-04T04:49:29;12.03;;;5.53;;
36593;SDS011;22603;47.900;8.146;2023-06-04T04:52:36;11.43;;;4.80;;
36593;SDS011;22603;47.900;8.146;2023-06-04T04:55:40;11.90;;;4.97;;
36593;SDS011;22603;47.900;8.146;2023-06-04T04:58:39;11.10;;;5.20;;
36593;SDS011;22603;47.900;8.146;2023-06-04T05:01:39;14.20;;;5.53;;
36593;SDS011;22603;47.900;8.146;2023-06-04T05:04:46;10.87;;;4.97;;
36593;SDS011;22603;47.900;8.146;2023-06-04T05:07:45;13.40;;;6.57;;
36593;SDS011;22603;47.900;8.146;2023-06-04T05:10:49;15.50;;;5.37;;
36593;SDS011;22603;47.900;8.146;2023-06-04T05:14:04;13.53;;;6.47;;
36593;SDS011;22603;47.900;8.146;2023-06-04T05:17:01;16.73;;;6.23;;
36593;SDS011;22603;47.900;8.146;2023-06-04T05:20:22;14.43;;;5.70;;
36593;SDS011;22603;47.900;8.146;2023-06-04T05:23:18;15.20;;;6.13;;
36593;SDS011;22603;47.900;8.146;2023-06-04T05:26:33;16.13;;;6.53;;
36593;SDS011;22603;47.900;8.146;2023-06-04T05:29:34;14.00;;;6.17;;
36593;SDS011;22603;47.900;8.146;2023-06-04T05:32:46;14.90;;;5.93;;
36593;SDS011;22603;47.900;8.146;2023-06-04T05:36:22;12.37;;;5.67;;
36593;SDS011;22603;47.900;8.146;2023-06-04T05:39:39;14.93;;;5.60;;
36593;SDS011;22603;47.900;8.146;2023-06-04T05:46:55;10.30;;;4.70;;
36593;SDS011;22603;47.900;8.146;2023-06-04T05:50:25;13.00;;;4.83;;
36593;SDS011;22603;47.900;8.146;2023-06-04T05:53:31;12.23;;;5.67;;
36593;SDS011;22603;47.900;8.146;2023-06-04T05:57:04;10.93;;;5.20;;
36593;SDS011;22603;47.900;8.146;2023-06-04T06:00:24;11.00;;;5.53;;
36593;SDS011;22603;47.900;8.146;2023-06-04T06:03:45;11.23;;;5.10;;
36593;SDS011;22603;47.900;8.146;2023-06-04T06:07:14;11.20;;;4.70;;
36593;SDS011;22603;47.900;8.146;2023-06-04T06:10:27;18.80;;;6.13;;
36593;SDS011;22603;47.900;8.146;2023-06-04T06:13:53;11.73;;;5.43;;
36593;SDS011;22603;47.900;8.146;2023-06-04T06:17:15;12.40;;;5.63;;
36593;SDS011;22603;47.900;8.146;2023-06-04T06:20:47;12.82;;;5.20;;
36593;SDS011;22603;47.900;8.146;2023-06-04T06:24:56;11.82;;;4.57;;
36593;SDS011;22603;47.900;8.146;2023-06-04T06:28:48;10.05;;;4.93;;
36593;SDS011;22603;47.900;8.146;2023-06-04T06:32:34;12.27;;;5.05;;
36593;SDS011;22603;47.900;8.146;2023-06-04T06:40:41;9.65;;;4.82;;
36593;SDS011;22603;47.900;8.146;2023-06-04T06:44:39;8.98;;;4.20;;
36593;SDS011;22603;47.900;8.146;2023-06-04T06:48:38;11.48;;;4.50;;
36593;SDS011;22603;47.900;8.146;2023-06-04T06:52:45;10.73;;;4.72;;
36593;SDS011;22603;47.900;8.146;2023-06-04T06:56:15;11.88;;;4.82;;
36593;SDS011;22603;47.900;8.146;2023-06-04T06:59:45;10.00;;;4.40;;
36593;SDS011;22603;47.900;8.146;2023-06-04T07:02:54;8.50;;;4.10;;
36593;SDS011;22603;47.900;8.146;2023-06-04T07:06:25;8.90;;;4.22;;
36593;SDS011;22603;47.900;8.146;2023-06-04T07:09:49;14.10;;;4.18;;
36593;SDS011;22603;47.900;8.146;2023-06-04T07:13:17;9.27;;;3.90;;
36593;SDS011;22603;47.900;8.146;2023-06-04T07:16:39;13.65;;;4.45;;
36593;SDS011;22603;47.900;8.146;2023-06-04T07:19:58;9.43;;;4.40;;
36593;SDS011;22603;47.900;8.146;2023-06-04T07:23:41;8.82;;;3.95;;
36593;SDS011;22603;47.900;8.146;2023-06-04T07:27:01;8.52;;;4.15;;
36593;SDS011;22603;47.900;8.146;2023-06-04T07:30:18;9.73;;;4.00;;
36593;SDS011;22603;47.900;8.146;2023-06-04T07:33:51;9.98;;;4.50;;
36593;SDS011;22603;47.900;8.146;2023-06-04T07:36:59;10.93;;;4.38;;
36593;SDS011;22603;47.900;8.146;2023-06-04T07:40:09;12.18;;;4.43;;
36593;SDS011;22603;47.900;8.146;2023-06-04T07:43:32;9.23;;;4.03;;
36593;SDS011;22603;47.900;8.146;2023-06-04T07:46:40;9.05;;;4.03;;
36593;SDS011;22603;47.900;8.146;2023-06-04T07:49:40;15.73;;;4.35;;
36593;SDS011;22603;47.900;8.146;2023-06-04T07:52:54;12.55;;;3.85;;
36593;SDS011;22603;47.900;8.146;2023-06-04T07:55:53;11.60;;;4.28;;
36593;SDS011;22603;47.900;8.146;2023-06-04T07:59:14;8.75;;;4.25;;
36593;SDS011;22603;47.900;8.146;2023-06-04T08:02:40;11.52;;;4.20;;
36593;SDS011;22603;47.900;8.146;2023-06-04T08:06:12;9.43;;;4.60;;
36593;SDS011;22603;47.900;8.146;2023-06-04T08:10:08;9.55;;;4.07;;
36593;SDS011;22603;47.900;8.146;2023-06-04T08:14:36;11.52;;;3.90;;
36593;SDS011;22603;47.900;8.146;2023-06-04T08:18:17;7.38;;;3.72;;
36593;SDS011;22603;47.900;8.146;2023-06-04T08:21:28;8.38;;;3.80;;
36593;SDS011;22603;47.900;8.146;2023-06-04T08:24:16;10.75;;;3.50;;
36593;SDS011;22603;47.900;8.146;2023-06-04T08:27:03;11.15;;;4.13;;
36593;SDS011;22603;47.900;8.146;2023-06-04T08:29:51;10.20;;;4.13;;
36593;SDS011;22603;47.900;8.146;2023-06-04T08:32:38;12.45;;;4.00;;
36593;SDS011;22603;47.900;8.146;2023-06-04T08:35:26;8.10;;;3.72;;
36593;SDS011;22603;47.900;8.146;2023-06-04T08:38:14;7.55;;;3.65;;
36593;SDS011;22603;47.900;8.146;2023-06-04T08:41:02;10.95;;;3.95;;
36593;SDS011;22603;47.900;8.146;2023-06-04T08:43:56;7.35;;;3.08;;
36593;SDS011;22603;47.900;8.146;2023-06-04T08:46:47;10.07;;;3.80;;
36593;SDS011;22603;47.900;8.146;2023-06-04T08:49:38;7.40;;;3.65;;
36593;SDS011;22603;47.900;8.146;2023-06-04T08:52:29;9.52;;;3.75;;
36593;SDS011;22603;47.900;8.146;2023-06-04T08:55:18;9.45;;;3.30;;
36593;SDS011;22603;47.900;8.146;2023-06-04T08:58:05;8.88;;;3.45;;
36593;SDS011;22603;47.900;8.146;2023-06-04T09:00:53;8.48;;;3.13;;
36593;SDS011;22603;47.900;8.146;2023-06-04T09:03:41;10.82;;;3.50;;
36593;SDS011;22603;47.900;8.146;2023-06-04T09:06:31;7.47;;;3.22;;
36593;SDS011;22603;47.900;8.146;2023-06-04T09:09:19;10.13;;;3.20;;
36593;SDS011;22603;47.900;8.146;2023-06-04T09:12:11;7.50;;;3.10;;
36593;SDS011;22603;47.900;8.146;2023-06-04T09:15:04;10.18;;;3.47;;
36593;SDS011;22603;47.900;8.146;2023-06-04T09:17:52;8.85;;;3.60;;
36593;SDS011;22603;47.900;8.146;2023-06-04T09:20:39;11.18;;;3.80;;
36593;SDS011;22603;47.900;8.146;2023-06-04T09:23:26;12.20;;;4.03;;
36593;SDS011;22603;47.900;8.146;2023-06-04T09:26:13;9.68;;;3.92;;
36593;SDS011;22603;47.900;8.146;2023-06-04T09:29:01;11.52;;;4.13;;
36593;SDS011;22603;47.900;8.146;2023-06-04T09:31:57;9.77;;;3.78;;
36593;SDS011;22603;47.900;8.146;2023-06-04T09:34:44;10.20;;;4.45;;
36593;SDS011;22603;47.900;8.146;2023-06-04T09:37:32;7.03;;;3.22;;
36593;SDS011;22603;47.900;8.146;2023-06-04T09:40:19;11.05;;;3.65;;
36593;SDS011;22603;47.900;8.146;2023-06-04T09:43:06;9.77;;;3.63;;
36593;SDS011;22603;47.900;8.146;2023-06-04T09:45:55;7.53;;;3.28;;
36593;SDS011;22603;47.900;8.146;2023-06-04T09:48:42;8.07;;;3.58;;
36593;SDS011;22603;47.900;8.146;2023-06-04T09:51:31;9.10;;;3.38;;
36593;SDS011;22603;47.900;8.146;2023-06-04T09:54:18;10.80;;;4.63;;
36593;SDS011;22603;47.900;8.146;2023-06-04T09:57:13;7.50;;;3.33;;
36593;SDS011;22603;47.900;8.146;2023-06-04T10:00:02;9.18;;;3.90;;
36593;SDS011;22603;47.900;8.146;2023-06-04T10:02:56;14.45;;;4.43;;
36593;SDS011;22603;47.900;8.146;2023-06-04T10:05:45;8.45;;;3.63;;
36593;SDS011;22603;47.900;8.146;2023-06-04T10:08:32;14.95;;;3.60;;
36593;SDS011;22603;47.900;8.146;2023-06-04T10:11:26;12.05;;;3.72;;
36593;SDS011;22603;47.900;8.146;2023-06-04T10:14:21;9.75;;;3.65;;
36593;SDS011;22603;47.900;8.146;2023-06-04T10:17:09;10.05;;;3.80;;
36593;SDS011;22603;47.900;8.146;2023-06-04T10:19:59;9.77;;;3.92;;
36593;SDS011;22603;47.900;8.146;2023-06-04T10:22:51;10.63;;;3.70;;
36593;SDS011;22603;47.900;8.146;2023-06-04T10:25:38;8.82;;;3.88;;
36593;SDS011;22603;47.900;8.146;2023-06-04T10:28:25;11.60;;;4.30;;
36593;SDS011;22603;47.900;8.146;2023-06-04T10:31:13;13.52;;;4.13;;
36593;SDS011;22603;47.900;8.146;2023-06-04T10:34:02;8.30;;;3.60;;
36593;SDS011;22603;47.900;8.146;2023-06-04T10:36:51;9.60;;;3.50;;
36593;SDS011;22603;47.900;8.146;2023-06-04T10:39:38;9.25;;;3.05;;
36593;SDS011;22603;47.900;8.146;2023-06-04T10:42:25;10.13;;;4.05;;
36593;SDS011;22603;47.900;8.146;2023-06-04T10:45:12;12.25;;;4.13;;
36593;SDS011;22603;47.900;8.146;2023-06-04T10:47:59;9.05;;;4.03;;
36593;SDS011;22603;47.900;8.146;2023-06-04T10:50:47;10.82;;;4.05;;
36593;SDS011;22603;47.900;8.146;2023-06-04T10:53:37;8.23;;;3.63;;
36593;SDS011;22603;47.900;8.146;2023-06-04T10:56:25;8.38;;;3.60;;
36593;SDS011;22603;47.900;8.146;2023-06-04T10:59:12;8.63;;;3.47;;
36593;SDS011;22603;47.900;8.146;2023-06-04T11:02:04;10.05;;;3.53;;
36593;SDS011;22603;47.900;8.146;2023-06-04T11:04:59;10.57;;;3.70;;
36593;SDS011;22603;47.900;8.146;2023-06-04T11:07:51;8.95;;;4.00;;
36593;SDS011;22603;47.900;8.146;2023-06-04T11:10:40;11.70;;;4.20;;
36593;SDS011;22603;47.900;8.146;2023-06-04T11:13:28;10.00;;;4.07;;
36593;SDS011;22603;47.900;8.146;2023-06-04T11:16:15;8.70;;;3.80;;
36593;SDS011;22603;47.900;8.146;2023-06-04T11:19:03;8.32;;;3.78;;
36593;SDS011;22603;47.900;8.146;2023-06-04T11:21:51;8.85;;;3.85;;
36593;SDS011;22603;47.900;8.146;2023-06-04T11:24:39;9.13;;;3.88;;
36593;SDS011;22603;47.900;8.146;2023-06-04T11:27:27;7.97;;;3.60;;
36593;SDS011;22603;47.900;8.146;2023-06-04T11:30:21;9.13;;;3.58;;
36593;SDS011;22603;47.900;8.146;2023-06-04T11:33:08;9.30;;;3.72;;
36593;SDS011;22603;47.900;8.146;2023-06-04T11:35:55;9.60;;;4.07;;
36593;SDS011;22603;47.900;8.146;2023-06-04T11:38:43;9.20;;;3.92;;
36593;SDS011;22603;47.900;8.146;2023-06-04T11:41:40;11.68;;;4.00;;
36593;SDS011;22603;47.900;8.146;2023-06-04T11:44:29;8.07;;;3.70;;
36593;SDS011;22603;47.900;8.146;2023-06-04T11:47:17;8.88;;;3.85;;
36593;SDS011;22603;47.900;8.146;2023-06-04T11:50:05;10.07;;;3.88;;
36593;SDS011;22603;47.900;8.146;2023-06-04T11:52:54;9.32;;;3.80;;
36593;SDS011;22603;47.900;8.146;2023-06-04T12:16:15;11.80;;;4.57;;
36593;SDS011;22603;47.900;8.146;2023-06-04T12:19:06;12.32;;;3.85;;
36593;SDS011;22603;47.900;8.146;2023-06-04T12:21:58;9.05;;;4.18;;
36593;SDS011;22603;47.900;8.146;2023-06-04T12:24:47;11.10;;;4.68;;
36593;SDS011;22603;47.900;8.146;2023-06-04T12:27:46;12.02;;;3.92;;
36593;SDS011;22603;47.900;8.146;2023-06-04T12:30:35;10.52;;;3.90;;
36593;SDS011;22603;47.900;8.146;2023-06-04T12:33:24;12.07;;;4.00;;
36593;SDS011;22603;47.900;8.146;2023-06-04T12:36:11;9.00;;;3.67;;
36593;SDS011;22603;47.900;8.146;2023-06-04T12:38:58;12.82;;;3.90;;
36593;SDS011;22603;47.900;8.146;2023-06-04T12:41:46;12.13;;;3.97;;
36593;SDS011;22603;47.900;8.146;2023-06-04T12:44:34;10.35;;;3.90;;
36593;SDS011;22603;47.900;8.146;2023-06-04T12:47:21;10.27;;;4.10;;
36593;SDS011;22603;47.900;8.146;2023-06-04T12:50:10;9.05;;;3.95;;
36593;SDS011;22603;47.900;8.146;2023-06-04T12:52:57;11.30;;;4.65;;
36593;SDS011;22603;47.900;8.146;2023-06-04T12:55:44;9.02;;;3.78;;
36593;SDS011;22603;47.900;8.146;2023-06-04T12:58:32;10.43;;;3.92;;
36593;SDS011;22603;47.900;8.146;2023-06-04T13:01:19;9.82;;;3.60;;
36593;SDS011;22603;47.900;8.146;2023-06-04T13:04:06;8.27;;;3.90;;
36593;SDS011;22603;47.900;8.146;2023-06-04T13:06:55;10.52;;;4.00;;
36593;SDS011;22603;47.900;8.146;2023-06-04T13:09:44;8.43;;;3.40;;
36593;SDS011;22603;47.900;8.146;2023-06-04T13:12:31;8.77;;;3.83;;
36593;SDS011;22603;47.900;8.146;2023-06-04T13:15:19;10.05;;;4.30;;
36593;SDS011;22603;47.900;8.146;2023-06-04T13:18:06;7.95;;;4.00;;
36593;SDS011;22603;47.900;8.146;2023-06-04T13:20:53;9.57;;;3.92;;
36593;SDS011;22603;47.900;8.146;2023-06-04T13:23:42;8.73;;;3.88;;
36593;SDS011;22603;47.900;8.146;2023-06-04T13:26:35;8.13;;;4.00;;
36593;SDS011;22603;47.900;8.146;2023-06-04T13:29:24;9.65;;;3.95;;
36593;SDS011;22603;47.900;8.146;2023-06-04T13:32:11;8.15;;;3.80;;
36593;SDS011;22603;47.900;8.146;2023-06-04T13:34:59;8.60;;;3.72;;
36593;SDS011;22603;47.900;8.146;2023-06-04T13:37:46;10.85;;;3.90;;
36593;SDS011;22603;47.900;8.146;2023-06-04T13:40:35;9.60;;;3.75;;
36593;SDS011;22603;47.900;8.146;2023-06-04T13:43:22;7.25;;;3.30;;
36593;SDS011;22603;47.900;8.146;2023-06-04T13:46:09;8.05;;;3.67;;
36593;SDS011;22603;47.900;8.146;2023-06-04T13:48:56;9.15;;;4.10;;
36593;SDS011;22603;47.900;8.146;2023-06-04T13:51:43;8.90;;;3.83;;
36593;SDS011;22603;47.900;8.146;2023-06-04T13:54:30;12.23;;;3.80;;
36593;SDS011;22603;47.900;8.146;2023-06-04T13:57:19;8.90;;;3.25;;
36593;SDS011;22603;47.900;8.146;2023-06-04T14:00:06;9.23;;;3.25;;
36593;SDS011;22603;47.900;8.146;2023-06-04T14:02:54;9.40;;;3.20;;
36593;SDS011;22603;47.900;8.146;2023-06-04T14:05:41;9.23;;;3.40;;
36593;SDS011;22603;47.900;8.146;2023-06-04T14:08:29;12.30;;;3.80;;
36593;SDS011;22603;47.900;8.146;2023-06-04T14:11:17;8.73;;;3.50;;
36593;SDS011;22603;47.900;8.146;2023-06-04T14:14:05;7.97;;;3.03;;
36593;SDS011;22603;47.900;8.146;2023-06-04T14:16:53;10.32;;;3.47;;
36593;SDS011;22603;47.900;8.146;2023-06-04T14:19:43;8.65;;;3.70;;
36593;SDS011;22603;47.900;8.146;2023-06-04T14:22:30;7.88;;;3.38;;
36593;SDS011;22603;47.900;8.146;2023-06-04T14:25:17;8.52;;;3.28;;
36593;SDS011;22603;47.900;8.146;2023-06-04T14:28:05;8.15;;;3.38;;
36593;SDS011;22603;47.900;8.146;2023-06-04T14:30:53;9.13;;;3.70;;
36593;SDS011;22603;47.900;8.146;2023-06-04T14:33:40;10.20;;;3.67;;
36593;SDS011;22603;47.900;8.146;2023-06-04T14:36:27;10.23;;;4.20;;
36593;SDS011;22603;47.900;8.146;2023-06-04T14:39:14;9.52;;;3.38;;
36593;SDS011;22603;47.900;8.146;2023-06-04T14:42:02;8.95;;;3.72;;
36593;SDS011;22603;47.900;8.146;2023-06-04T14:44:50;8.98;;;3.60;;
36593;SDS011;22603;47.900;8.146;2023-06-04T14:47:38;8.98;;;3.47;;
36593;SDS011;22603;47.900;8.146;2023-06-04T14:50:25;9.25;;;3.63;;
36593;SDS011;22603;47.900;8.146;2023-06-04T14:53:12;8.38;;;3.10;;
36593;SDS011;22603;47.900;8.146;2023-06-04T14:55:59;7.82;;;3.30;;
36593;SDS011;22603;47.900;8.146;2023-06-04T14:58:52;10.10;;;3.30;;
36593;SDS011;22603;47.900;8.146;2023-06-04T15:01:41;10.52;;;3.50;;
36593;SDS011;22603;47.900;8.146;2023-06-04T15:04:30;6.97;;;3.00;;
36593;SDS011;22603;47.900;8.146;2023-06-04T15:07:17;10.55;;;3.33;;
36593;SDS011;22603;47.900;8.146;2023-06-04T15:10:05;8.98;;;2.78;;
36593;SDS011;22603;47.900;8.146;2023-06-04T15:12:54;7.57;;;2.80;;
36593;SDS011;22603;47.900;8.146;2023-06-04T15:15:41;8.82;;;3.05;;
36593;SDS011;22603;47.900;8.146;2023-06-04T15:18:28;8.63;;;2.60;;
36593;SDS011;22603;47.900;8.146;2023-06-04T15:21:16;6.82;;;3.08;;
36593;SDS011;22603;47.900;8.146;2023-06-04T15:24:03;8.73;;;3.10;;
36593;SDS011;22603;47.900;8.146;2023-06-04T15:26:51;8.18;;;2.88;;
36593;SDS011;22603;47.900;8.146;2023-06-04T15:29:38;5.93;;;2.63;;
36593;SDS011;22603;47.900;8.146;2023-06-04T15:32:25;9.07;;;3.45;;
36593;SDS011;22603;47.900;8.146;2023-06-04T15:35:12;6.55;;;3.00;;
36593;SDS011;22603;47.900;8.146;2023-06-04T15:38:00;7.28;;;2.97;;
36593;SDS011;22603;47.900;8.146;2023-06-04T15:40:47;8.30;;;3.50;;
36593;SDS011;22603;47.900;8.146;2023-06-04T15:43:34;7.78;;;3.00;;
36593;SDS011;22603;47.900;8.146;2023-06-04T15:46:24;13.38;;;3.17;;
36593;SDS011;22603;47.900;8.146;2023-06-04T15:49:11;8.60;;;2.97;;
36593;SDS011;22603;47.900;8.146;2023-06-04T15:51:58;8.68;;;3.58;;
36593;SDS011;22603;47.900;8.146;2023-06-04T15:54:47;9.43;;;3.55;;
36593;SDS011;22603;47.900;8.146;2023-06-04T15:57:34;8.75;;;3.70;;
36593;SDS011;22603;47.900;8.146;2023-06-04T16:00:21;7.78;;;3.17;;
36593;SDS011;22603;47.900;8.146;2023-06-04T16:03:08;9.95;;;3.55;;
36593;SDS011;22603;47.900;8.146;2023-06-04T16:05:55;9.20;;;3.80;;
36593;SDS011;22603;47.900;8.146;2023-06-04T16:08:42;8.50;;;3.55;;
36593;SDS011;22603;47.900;8.146;2023-06-04T16:11:31;7.70;;;3.13;;
36593;SDS011;22603;47.900;8.146;2023-06-04T16:14:20;8.98;;;3.70;;
36593;SDS011;22603;47.900;8.146;2023-06-04T16:17:07;11.88;;;4.32;;
36593;SDS011;22603;47.900;8.146;2023-06-04T16:19:54;8.32;;;3.63;;
36593;SDS011;22603;47.900;8.146;2023-06-04T16:22:41;10.48;;;3.22;;
36593;SDS011;22603;47.900;8.146;2023-06-04T16:25:28;7.82;;;2.83;;
36593;SDS011;22603;47.900;8.146;2023-06-04T16:28:17;9.05;;;3.10;;
36593;SDS011;22603;47.900;8.146;2023-06-04T16:31:04;7.30;;;3.00;;
36593;SDS011;22603;47.900;8.146;2023-06-04T16:33:52;11.50;;;3.53;;
36593;SDS011;22603;47.900;8.146;2023-06-04T16:36:38;7.15;;;3.40;;
36593;SDS011;22603;47.900;8.146;2023-06-04T16:39:25;7.93;;;3.10;;
36593;SDS011;22603;47.900;8.146;2023-06-04T16:42:13;8.02;;;2.95;;
36593;SDS011;22603;47.900;8.146;2023-06-04T16:45:01;6.93;;;2.60;;
36593;SDS011;22603;47.900;8.146;2023-06-04T16:47:49;8.43;;;3.10;;
36593;SDS011;22603;47.900;8.146;2023-06-04T16:50:36;7.55;;;3.45;;
36593;SDS011;22603;47.900;8.146;2023-06-04T16:53:24;6.97;;;3.15;;
36593;SDS011;22603;47.900;8.146;2023-06-04T16:56:11;8.30;;;3.53;;
36593;SDS011;22603;47.900;8.146;2023-06-04T16:58:58;8.55;;;3.50;;
36593;SDS011;22603;47.900;8.146;2023-06-04T17:01:46;11.35;;;3.88;;
36593;SDS011;22603;47.900;8.146;2023-06-04T17:04:33;7.82;;;3.30;;
36593;SDS011;22603;47.900;8.146;2023-06-04T17:07:20;9.15;;;3.92;;
36593;SDS011;22603;47.900;8.146;2023-06-04T17:10:08;9.18;;;3.80;;
36593;SDS011;22603;47.900;8.146;2023-06-04T17:12:56;8.02;;;3.38;;
36593;SDS011;22603;47.900;8.146;2023-06-04T17:15:43;6.72;;;3.22;;
36593;SDS011;22603;47.900;8.146;2023-06-04T17:18:32;7.85;;;3.22;;
36593;SDS011;22603;47.900;8.146;2023-06-04T17:21:19;8.27;;;3.90;;
36593;SDS011;22603;47.900;8.146;2023-06-04T17:24:07;8.13;;;3.45;;
36593;SDS011;22603;47.900;8.146;2023-06-04T17:26:54;8.75;;;3.50;;
36593;SDS011;22603;47.900;8.146;2023-06-04T17:29:41;8.02;;;3.50;;
36593;SDS011;22603;47.900;8.146;2023-06-04T17:32:28;8.48;;;3.15;;
36593;SDS011;22603;47.900;8.146;2023-06-04T17:35:17;8.20;;;3.38;;
36593;SDS011;22603;47.900;8.146;2023-06-04T17:38:04;7.38;;;3.08;;
36593;SDS011;22603;47.900;8.146;2023-06-04T17:40:51;7.10;;;3.10;;
36593;SDS011;22603;47.900;8.146;2023-06-04T17:43:39;8.80;;;3.17;;
36593;SDS011;22603;47.900;8.146;2023-06-04T17:46:26;7.93;;;2.92;;
36593;SDS011;22603;47.900;8.146;2023-06-04T17:49:12;8.65;;;3.60;;
36593;SDS011;22603;47.900;8.146;2023-06-04T17:52:01;9.95;;;3.88;;
36593;SDS011;22603;47.900;8.146;2023-06-04T17:54:49;9.57;;;3.78;;
36593;SDS011;22603;47.900;8.146;2023-06-04T17:57:36;8.82;;;3.70;;
36593;SDS011;22603;47.900;8.146;2023-06-04T18:00:23;10.60;;;3.65;;
36593;SDS011;22603;47.900;8.146;2023-06-04T18:03:10;9.20;;;3.80;;
36593;SDS011;22603;47.900;8.146;2023-06-04T18:05:57;8.52;;;3.63;;
36593;SDS011;22603;47.900;8.146;2023-06-04T18:08:45;9.05;;;3.83;;
36593;SDS011;22603;47.900;8.146;2023-06-04T18:11:32;7.90;;;3.28;;
36593;SDS011;22603;47.900;8.146;2023-06-04T18:14:20;10.65;;;3.75;;
36593;SDS011;22603;47.900;8.146;2023-06-04T18:17:07;8.68;;;3.70;;
36593;SDS011;22603;47.900;8.146;2023-06-04T18:19:54;11.45;;;3.58;;